Decoded Metar for VTSS (SONGKHLA in THAILAND) (IATA:HDY) | Meteo·Mobile Aviation Weather
aviador You're here:

VTSS Decoded Metar

SONGKHLA in THAILAND
Report Time2019-10-19 22:00:00
UTC Time2019-10-19 22:18:34
Flight Rules vfr VFR
Wind270° at 02 kt
W.Decomp.*RWY 26: 2.0 kt HW 0.3 kt RCW
Visibility9999 m
Phenomena:N/A
Clouds:Few 020 Hf
Broken 100 Hf
Ceiling10,000 ft
Temp25°C (ISA +10)
Dew Point25°C (100% RH)
QNH1009 hPa
Density Alt1,850 ft
Elevation115 ft
Report Wrong Elevation
Raw Report
VTSS 192200Z 27002KT 9999 FEW020 BKN100 25/25 Q1009 NOSIG=

Extra information for VTSS:More info

Metar Taf Metar & Taf Last 4 Metars F.Rules Stats Wind Profile Meteogram Temp Stats Airport Information Weather charts Add Link Nearby VenuesMetar ALERT Operation Metar Decoded Social comments